sensor_id;sensor_type;location;lat;lon;timestamp;P1;durP1;ratioP1;P2;durP2;ratioP2
69511;SDS011;70777;52.034;4.644;2023-08-01T00:01:01;9.95;;;3.40;;
69511;SDS011;70777;52.034;4.644;2023-08-01T00:03:27;9.48;;;3.22;;
69511;SDS011;70777;52.034;4.644;2023-08-01T00:05:52;8.70;;;3.95;;
69511;SDS011;70777;52.034;4.644;2023-08-01T00:08:20;7.70;;;3.22;;
69511;SDS011;70777;52.034;4.644;2023-08-01T00:10:45;8.30;;;3.05;;
69511;SDS011;70777;52.034;4.644;2023-08-01T00:13:11;8.35;;;3.53;;
69511;SDS011;70777;52.034;4.644;2023-08-01T00:15:36;10.80;;;3.20;;
69511;SDS011;70777;52.034;4.644;2023-08-01T00:18:02;7.35;;;3.08;;
69511;SDS011;70777;52.034;4.644;2023-08-01T00:20:27;11.85;;;3.97;;
69511;SDS011;70777;52.034;4.644;2023-08-01T00:22:53;7.32;;;3.35;;
69511;SDS011;70777;52.034;4.644;2023-08-01T00:25:18;11.18;;;3.95;;
69511;SDS011;70777;52.034;4.644;2023-08-01T00:27:43;7.53;;;3.13;;
69511;SDS011;70777;52.034;4.644;2023-08-01T00:30:09;11.13;;;3.30;;
69511;SDS011;70777;52.034;4.644;2023-08-01T00:32:35;11.50;;;3.25;;
69511;SDS011;70777;52.034;4.644;2023-08-01T00:35:01;9.13;;;3.28;;
69511;SDS011;70777;52.034;4.644;2023-08-01T00:37:26;9.25;;;3.25;;
69511;SDS011;70777;52.034;4.644;2023-08-01T00:39:51;10.40;;;3.42;;
69511;SDS011;70777;52.034;4.644;2023-08-01T00:42:17;10.15;;;3.38;;
69511;SDS011;70777;52.034;4.644;2023-08-01T00:44:42;11.15;;;3.90;;
69511;SDS011;70777;52.034;4.644;2023-08-01T00:47:08;11.43;;;3.55;;
69511;SDS011;70777;52.034;4.644;2023-08-01T00:49:33;12.10;;;3.95;;
69511;SDS011;70777;52.034;4.644;2023-08-01T00:51:59;10.07;;;3.50;;
69511;SDS011;70777;52.034;4.644;2023-08-01T00:54:25;9.73;;;3.40;;
69511;SDS011;70777;52.034;4.644;2023-08-01T00:56:50;12.82;;;3.95;;
69511;SDS011;70777;52.034;4.644;2023-08-01T00:59:16;13.13;;;3.83;;
69511;SDS011;70777;52.034;4.644;2023-08-01T01:01:41;12.10;;;4.43;;
69511;SDS011;70777;52.034;4.644;2023-08-01T01:04:07;11.38;;;4.05;;
69511;SDS011;70777;52.034;4.644;2023-08-01T01:09:18;14.30;;;4.32;;
69511;SDS011;70777;52.034;4.644;2023-08-01T01:11:45;11.77;;;3.78;;
69511;SDS011;70777;52.034;4.644;2023-08-01T01:14:11;10.40;;;3.83;;
69511;SDS011;70777;52.034;4.644;2023-08-01T01:16:36;13.07;;;4.15;;
69511;SDS011;70777;52.034;4.644;2023-08-01T01:19:05;9.77;;;4.38;;
69511;SDS011;70777;52.034;4.644;2023-08-01T01:21:33;13.63;;;5.07;;
69511;SDS011;70777;52.034;4.644;2023-08-01T01:23:59;12.65;;;4.05;;
69511;SDS011;70777;52.034;4.644;2023-08-01T01:26:25;13.27;;;4.18;;
69511;SDS011;70777;52.034;4.644;2023-08-01T01:28:51;15.98;;;4.65;;
69511;SDS011;70777;52.034;4.644;2023-08-01T01:31:16;12.10;;;3.63;;
69511;SDS011;70777;52.034;4.644;2023-08-01T01:33:42;17.40;;;4.22;;
69511;SDS011;70777;52.034;4.644;2023-08-01T01:36:07;8.80;;;3.28;;
69511;SDS011;70777;52.034;4.644;2023-08-01T01:38:33;14.68;;;4.22;;
69511;SDS011;70777;52.034;4.644;2023-08-01T01:40:58;10.20;;;4.13;;
69511;SDS011;70777;52.034;4.644;2023-08-01T01:43:24;14.65;;;3.72;;
69511;SDS011;70777;52.034;4.644;2023-08-01T01:45:49;15.15;;;4.18;;
69511;SDS011;70777;52.034;4.644;2023-08-01T01:48:14;10.57;;;3.80;;
69511;SDS011;70777;52.034;4.644;2023-08-01T01:50:40;11.88;;;3.67;;
69511;SDS011;70777;52.034;4.644;2023-08-01T01:53:05;14.65;;;3.97;;
69511;SDS011;70777;52.034;4.644;2023-08-01T01:55:30;11.10;;;4.10;;
69511;SDS011;70777;52.034;4.644;2023-08-01T01:57:56;10.20;;;4.03;;
69511;SDS011;70777;52.034;4.644;2023-08-01T02:00:21;10.45;;;4.13;;
69511;SDS011;70777;52.034;4.644;2023-08-01T02:02:48;14.38;;;3.65;;
69511;SDS011;70777;52.034;4.644;2023-08-01T02:05:13;10.82;;;3.53;;
69511;SDS011;70777;52.034;4.644;2023-08-01T02:07:40;12.27;;;3.67;;
69511;SDS011;70777;52.034;4.644;2023-08-01T02:10:05;11.18;;;3.47;;
69511;SDS011;70777;52.034;4.644;2023-08-01T02:12:31;10.80;;;3.28;;
69511;SDS011;70777;52.034;4.644;2023-08-01T02:14:57;9.27;;;3.47;;
69511;SDS011;70777;52.034;4.644;2023-08-01T02:17:23;10.60;;;3.42;;
69511;SDS011;70777;52.034;4.644;2023-08-01T02:19:48;12.77;;;3.47;;
69511;SDS011;70777;52.034;4.644;2023-08-01T02:22:14;14.57;;;3.72;;
69511;SDS011;70777;52.034;4.644;2023-08-01T02:24:39;9.70;;;3.40;;
69511;SDS011;70777;52.034;4.644;2023-08-01T02:27:06;9.90;;;3.85;;
69511;SDS011;70777;52.034;4.644;2023-08-01T02:29:32;12.38;;;4.05;;
69511;SDS011;70777;52.034;4.644;2023-08-01T02:31:57;15.27;;;4.35;;
69511;SDS011;70777;52.034;4.644;2023-08-01T02:34:22;13.95;;;3.78;;
69511;SDS011;70777;52.034;4.644;2023-08-01T02:36:48;12.68;;;4.22;;
69511;SDS011;70777;52.034;4.644;2023-08-01T02:39:15;15.23;;;4.63;;
69511;SDS011;70777;52.034;4.644;2023-08-01T02:41:40;11.50;;;3.42;;
69511;SDS011;70777;52.034;4.644;2023-08-01T02:44:06;14.43;;;4.45;;
69511;SDS011;70777;52.034;4.644;2023-08-01T02:46:31;10.88;;;3.22;;
69511;SDS011;70777;52.034;4.644;2023-08-01T02:48:57;16.48;;;4.80;;
69511;SDS011;70777;52.034;4.644;2023-08-01T02:51:22;11.63;;;3.83;;
69511;SDS011;70777;52.034;4.644;2023-08-01T02:53:48;17.77;;;4.05;;
69511;SDS011;70777;52.034;4.644;2023-08-01T02:56:14;9.65;;;4.00;;
69511;SDS011;70777;52.034;4.644;2023-08-01T02:58:39;17.80;;;4.13;;
69511;SDS011;70777;52.034;4.644;2023-08-01T03:01:08;13.77;;;4.05;;
69511;SDS011;70777;52.034;4.644;2023-08-01T03:03:37;11.45;;;3.83;;
69511;SDS011;70777;52.034;4.644;2023-08-01T03:06:04;14.75;;;3.80;;
69511;SDS011;70777;52.034;4.644;2023-08-01T03:08:29;13.30;;;4.25;;
69511;SDS011;70777;52.034;4.644;2023-08-01T03:10:56;13.93;;;4.18;;
69511;SDS011;70777;52.034;4.644;2023-08-01T03:13:22;16.13;;;3.90;;
69511;SDS011;70777;52.034;4.644;2023-08-01T03:15:47;15.77;;;4.63;;
69511;SDS011;70777;52.034;4.644;2023-08-01T03:18:12;10.73;;;3.95;;
69511;SDS011;70777;52.034;4.644;2023-08-01T03:20:38;13.80;;;4.50;;
69511;SDS011;70777;52.034;4.644;2023-08-01T03:23:04;16.00;;;4.13;;
69511;SDS011;70777;52.034;4.644;2023-08-01T03:25:30;19.35;;;4.70;;
69511;SDS011;70777;52.034;4.644;2023-08-01T03:27:56;13.27;;;4.60;;
69511;SDS011;70777;52.034;4.644;2023-08-01T03:30:23;12.23;;;3.97;;
69511;SDS011;70777;52.034;4.644;2023-08-01T03:32:48;12.65;;;4.57;;
69511;SDS011;70777;52.034;4.644;2023-08-01T03:35:13;13.23;;;4.55;;
69511;SDS011;70777;52.034;4.644;2023-08-01T03:37:39;12.18;;;4.60;;
69511;SDS011;70777;52.034;4.644;2023-08-01T03:40:05;16.33;;;5.28;;
69511;SDS011;70777;52.034;4.644;2023-08-01T03:42:34;17.52;;;5.20;;
69511;SDS011;70777;52.034;4.644;2023-08-01T03:44:59;13.60;;;4.32;;
69511;SDS011;70777;52.034;4.644;2023-08-01T03:47:25;19.48;;;4.85;;
69511;SDS011;70777;52.034;4.644;2023-08-01T03:49:50;18.63;;;5.78;;
69511;SDS011;70777;52.034;4.644;2023-08-01T03:52:16;15.70;;;4.85;;
69511;SDS011;70777;52.034;4.644;2023-08-01T03:54:41;12.35;;;4.18;;
69511;SDS011;70777;52.034;4.644;2023-08-01T03:57:06;9.52;;;3.90;;
69511;SDS011;70777;52.034;4.644;2023-08-01T03:59:32;15.95;;;4.10;;
69511;SDS011;70777;52.034;4.644;2023-08-01T04:01:57;13.35;;;4.78;;
69511;SDS011;70777;52.034;4.644;2023-08-01T04:04:23;20.98;;;4.53;;
69511;SDS011;70777;52.034;4.644;2023-08-01T04:06:48;15.40;;;4.43;;
69511;SDS011;70777;52.034;4.644;2023-08-01T04:09:13;13.27;;;4.15;;
69511;SDS011;70777;52.034;4.644;2023-08-01T04:11:39;13.95;;;4.75;;
69511;SDS011;70777;52.034;4.644;2023-08-01T04:14:04;20.85;;;4.38;;
69511;SDS011;70777;52.034;4.644;2023-08-01T04:16:30;13.07;;;4.70;;
69511;SDS011;70777;52.034;4.644;2023-08-01T04:18:55;14.27;;;4.05;;
69511;SDS011;70777;52.034;4.644;2023-08-01T04:21:21;13.15;;;4.32;;
69511;SDS011;70777;52.034;4.644;2023-08-01T04:23:46;12.93;;;4.22;;
69511;SDS011;70777;52.034;4.644;2023-08-01T04:26:12;14.07;;;4.47;;
69511;SDS011;70777;52.034;4.644;2023-08-01T04:28:37;14.15;;;4.95;;
69511;SDS011;70777;52.034;4.644;2023-08-01T04:31:02;15.48;;;4.22;;
69511;SDS011;70777;52.034;4.644;2023-08-01T04:33:28;14.18;;;4.50;;
69511;SDS011;70777;52.034;4.644;2023-08-01T04:35:53;10.43;;;3.88;;
69511;SDS011;70777;52.034;4.644;2023-08-01T04:38:19;22.13;;;5.38;;
69511;SDS011;70777;52.034;4.644;2023-08-01T04:40:44;14.48;;;4.15;;
69511;SDS011;70777;52.034;4.644;2023-08-01T04:43:10;12.05;;;3.83;;
69511;SDS011;70777;52.034;4.644;2023-08-01T04:45:36;9.47;;;3.10;;
69511;SDS011;70777;52.034;4.644;2023-08-01T04:48:01;10.73;;;3.30;;
69511;SDS011;70777;52.034;4.644;2023-08-01T04:50:27;8.75;;;2.90;;
69511;SDS011;70777;52.034;4.644;2023-08-01T04:52:52;9.55;;;2.75;;
69511;SDS011;70777;52.034;4.644;2023-08-01T04:55:18;10.77;;;3.45;;
69511;SDS011;70777;52.034;4.644;2023-08-01T04:57:43;8.52;;;2.85;;
69511;SDS011;70777;52.034;4.644;2023-08-01T05:00:09;10.52;;;3.67;;
69511;SDS011;70777;52.034;4.644;2023-08-01T05:02:34;12.73;;;3.08;;
69511;SDS011;70777;52.034;4.644;2023-08-01T05:05:00;11.40;;;3.13;;
69511;SDS011;70777;52.034;4.644;2023-08-01T05:07:25;10.50;;;3.05;;
69511;SDS011;70777;52.034;4.644;2023-08-01T05:09:51;13.32;;;3.05;;
69511;SDS011;70777;52.034;4.644;2023-08-01T05:12:16;10.70;;;3.17;;
69511;SDS011;70777;52.034;4.644;2023-08-01T05:14:41;10.38;;;2.95;;
69511;SDS011;70777;52.034;4.644;2023-08-01T05:17:07;9.95;;;2.78;;
69511;SDS011;70777;52.034;4.644;2023-08-01T05:19:32;7.20;;;3.13;;
69511;SDS011;70777;52.034;4.644;2023-08-01T05:21:58;10.15;;;3.03;;
69511;SDS011;70777;52.034;4.644;2023-08-01T05:24:23;11.68;;;2.90;;
69511;SDS011;70777;52.034;4.644;2023-08-01T05:26:48;11.10;;;2.65;;
69511;SDS011;70777;52.034;4.644;2023-08-01T05:29:14;12.18;;;3.45;;
69511;SDS011;70777;52.034;4.644;2023-08-01T05:31:39;10.15;;;2.70;;
69511;SDS011;70777;52.034;4.644;2023-08-01T05:34:04;7.93;;;2.83;;
69511;SDS011;70777;52.034;4.644;2023-08-01T05:36:30;10.32;;;3.28;;
69511;SDS011;70777;52.034;4.644;2023-08-01T05:38:56;10.60;;;3.05;;
69511;SDS011;70777;52.034;4.644;2023-08-01T05:41:21;6.32;;;2.55;;
69511;SDS011;70777;52.034;4.644;2023-08-01T05:43:48;9.40;;;2.80;;
69511;SDS011;70777;52.034;4.644;2023-08-01T05:46:13;10.55;;;3.20;;
69511;SDS011;70777;52.034;4.644;2023-08-01T05:48:39;10.65;;;3.15;;
69511;SDS011;70777;52.034;4.644;2023-08-01T05:51:04;14.35;;;3.20;;
69511;SDS011;70777;52.034;4.644;2023-08-01T05:53:29;7.45;;;2.85;;
69511;SDS011;70777;52.034;4.644;2023-08-01T05:55:55;9.85;;;2.95;;
69511;SDS011;70777;52.034;4.644;2023-08-01T05:58:20;12.43;;;3.28;;
69511;SDS011;70777;52.034;4.644;2023-08-01T06:00:46;8.10;;;2.55;;
69511;SDS011;70777;52.034;4.644;2023-08-01T06:03:11;9.57;;;2.65;;
69511;SDS011;70777;52.034;4.644;2023-08-01T06:05:37;5.15;;;2.25;;
69511;SDS011;70777;52.034;4.644;2023-08-01T06:08:03;6.95;;;2.35;;
69511;SDS011;70777;52.034;4.644;2023-08-01T06:10:28;10.75;;;2.40;;
69511;SDS011;70777;52.034;4.644;2023-08-01T06:12:54;9.60;;;3.00;;
69511;SDS011;70777;52.034;4.644;2023-08-01T06:15:19;9.13;;;2.30;;
69511;SDS011;70777;52.034;4.644;2023-08-01T06:17:45;10.35;;;2.53;;
69511;SDS011;70777;52.034;4.644;2023-08-01T06:20:11;7.30;;;2.30;;
69511;SDS011;70777;52.034;4.644;2023-08-01T06:22:36;7.07;;;2.30;;
69511;SDS011;70777;52.034;4.644;2023-08-01T06:25:02;6.10;;;1.90;;
69511;SDS011;70777;52.034;4.644;2023-08-01T06:27:28;9.40;;;2.40;;
69511;SDS011;70777;52.034;4.644;2023-08-01T06:29:53;8.40;;;2.17;;
69511;SDS011;70777;52.034;4.644;2023-08-01T06:32:19;6.97;;;2.20;;
69511;SDS011;70777;52.034;4.644;2023-08-01T06:34:44;12.82;;;2.60;;
69511;SDS011;70777;52.034;4.644;2023-08-01T06:37:10;11.13;;;2.60;;
69511;SDS011;70777;52.034;4.644;2023-08-01T06:39:35;7.70;;;2.42;;
69511;SDS011;70777;52.034;4.644;2023-08-01T06:42:00;8.68;;;2.55;;
69511;SDS011;70777;52.034;4.644;2023-08-01T06:44:26;10.45;;;2.78;;
69511;SDS011;70777;52.034;4.644;2023-08-01T06:46:51;9.40;;;2.60;;
69511;SDS011;70777;52.034;4.644;2023-08-01T06:49:17;12.63;;;2.78;;
69511;SDS011;70777;52.034;4.644;2023-08-01T06:51:42;11.02;;;2.53;;
69511;SDS011;70777;52.034;4.644;2023-08-01T06:54:08;8.73;;;2.45;;
69511;SDS011;70777;52.034;4.644;2023-08-01T06:56:33;9.73;;;2.67;;
69511;SDS011;70777;52.034;4.644;2023-08-01T06:58:58;9.40;;;2.58;;
69511;SDS011;70777;52.034;4.644;2023-08-01T07:01:24;12.60;;;2.75;;
69511;SDS011;70777;52.034;4.644;2023-08-01T07:03:49;9.35;;;2.90;;
69511;SDS011;70777;52.034;4.644;2023-08-01T07:06:17;7.75;;;2.90;;
69511;SDS011;70777;52.034;4.644;2023-08-01T07:08:44;10.20;;;3.08;;
69511;SDS011;70777;52.034;4.644;2023-08-01T07:11:09;8.60;;;2.67;;
69511;SDS011;70777;52.034;4.644;2023-08-01T07:13:35;8.68;;;2.90;;
69511;SDS011;70777;52.034;4.644;2023-08-01T07:16:00;12.07;;;2.60;;
69511;SDS011;70777;52.034;4.644;2023-08-01T07:18:26;11.93;;;3.47;;
69511;SDS011;70777;52.034;4.644;2023-08-01T07:21:01;7.45;;;2.38;;
69511;SDS011;70777;52.034;4.644;2023-08-01T07:23:27;4.13;;;2.20;;
69511;SDS011;70777;52.034;4.644;2023-08-01T07:25:55;8.75;;;2.20;;
69511;SDS011;70777;52.034;4.644;2023-08-01T07:28:20;8.63;;;2.38;;
69511;SDS011;70777;52.034;4.644;2023-08-01T07:30:46;6.53;;;1.83;;
69511;SDS011;70777;52.034;4.644;2023-08-01T07:33:11;7.28;;;2.00;;
69511;SDS011;70777;52.034;4.644;2023-08-01T07:35:36;7.93;;;2.25;;
69511;SDS011;70777;52.034;4.644;2023-08-01T07:38:02;7.07;;;2.00;;
69511;SDS011;70777;52.034;4.644;2023-08-01T07:40:27;8.27;;;2.10;;
69511;SDS011;70777;52.034;4.644;2023-08-01T07:42:52;4.72;;;1.95;;
69511;SDS011;70777;52.034;4.644;2023-08-01T07:45:18;7.30;;;2.03;;
69511;SDS011;70777;52.034;4.644;2023-08-01T07:47:44;6.15;;;2.33;;
69511;SDS011;70777;52.034;4.644;2023-08-01T07:50:10;7.17;;;2.10;;
69511;SDS011;70777;52.034;4.644;2023-08-01T07:52:36;6.55;;;2.10;;
69511;SDS011;70777;52.034;4.644;2023-08-01T07:55:02;7.00;;;2.20;;
69511;SDS011;70777;52.034;4.644;2023-08-01T07:57:27;10.13;;;2.93;;
69511;SDS011;70777;52.034;4.644;2023-08-01T07:59:53;7.40;;;2.50;;
69511;SDS011;70777;52.034;4.644;2023-08-01T08:02:18;8.00;;;2.47;;
69511;SDS011;70777;52.034;4.644;2023-08-01T08:04:44;6.97;;;2.13;;
69511;SDS011;70777;52.034;4.644;2023-08-01T08:07:09;7.37;;;2.30;;
69511;SDS011;70777;52.034;4.644;2023-08-01T08:09:34;10.47;;;2.23;;
69511;SDS011;70777;52.034;4.644;2023-08-01T08:14:27;9.20;;;2.63;;
69511;SDS011;70777;52.034;4.644;2023-08-01T08:16:54;5.80;;;2.00;;
69511;SDS011;70777;52.034;4.644;2023-08-01T08:19:19;9.15;;;2.13;;
69511;SDS011;70777;52.034;4.644;2023-08-01T08:21:46;7.73;;;2.37;;
69511;SDS011;70777;52.034;4.644;2023-08-01T08:24:11;10.52;;;2.20;;
69511;SDS011;70777;52.034;4.644;2023-08-01T08:26:37;8.97;;;2.60;;
69511;SDS011;70777;52.034;4.644;2023-08-01T08:29:04;11.15;;;2.75;;
69511;SDS011;70777;52.034;4.644;2023-08-01T08:31:30;6.63;;;1.80;;
69511;SDS011;70777;52.034;4.644;2023-08-01T08:33:56;7.95;;;1.88;;
69511;SDS011;70777;52.034;4.644;2023-08-01T08:36:22;7.95;;;2.00;;
69511;SDS011;70777;52.034;4.644;2023-08-01T08:38:48;9.93;;;2.30;;
69511;SDS011;70777;52.034;4.644;2023-08-01T08:41:16;6.38;;;1.55;;
69511;SDS011;70777;52.034;4.644;2023-08-01T08:43:45;8.10;;;2.10;;
69511;SDS011;70777;52.034;4.644;2023-08-01T08:46:14;8.43;;;2.20;;
69511;SDS011;70777;52.034;4.644;2023-08-01T08:48:41;10.88;;;2.45;;
69511;SDS011;70777;52.034;4.644;2023-08-01T08:51:09;7.18;;;2.10;;
69511;SDS011;70777;52.034;4.644;2023-08-01T08:53:35;11.38;;;2.60;;
69511;SDS011;70777;52.034;4.644;2023-08-01T08:56:02;13.38;;;3.35;;
69511;SDS011;70777;52.034;4.644;2023-08-01T09:00:56;9.18;;;2.10;;
69511;SDS011;70777;52.034;4.644;2023-08-01T09:03:23;5.90;;;1.92;;
69511;SDS011;70777;52.034;4.644;2023-08-01T09:05:50;6.03;;;1.70;;
69511;SDS011;70777;52.034;4.644;2023-08-01T09:08:20;7.05;;;2.38;;
69511;SDS011;70777;52.034;4.644;2023-08-01T09:13:12;7.13;;;2.03;;
69511;SDS011;70777;52.034;4.644;2023-08-01T09:15:38;7.23;;;2.17;;
69511;SDS011;70777;52.034;4.644;2023-08-01T09:18:08;6.53;;;1.80;;
69511;SDS011;70777;52.034;4.644;2023-08-01T09:20:40;9.95;;;2.85;;
69511;SDS011;70777;52.034;4.644;2023-08-01T09:23:10;9.85;;;2.28;;
69511;SDS011;70777;52.034;4.644;2023-08-01T09:25:42;9.23;;;2.53;;
69511;SDS011;70777;52.034;4.644;2023-08-01T09:28:17;4.72;;;1.73;;
69511;SDS011;70777;52.034;4.644;2023-08-01T09:30:54;8.02;;;2.13;;
69511;SDS011;70777;52.034;4.644;2023-08-01T09:33:20;6.13;;;1.80;;
69511;SDS011;70777;52.034;4.644;2023-08-01T09:35:49;5.93;;;2.08;;
69511;SDS011;70777;52.034;4.644;2023-08-01T09:38:15;5.88;;;1.80;;
69511;SDS011;70777;52.034;4.644;2023-08-01T09:40:41;7.63;;;2.00;;
69511;SDS011;70777;52.034;4.644;2023-08-01T09:43:09;6.32;;;2.17;;
69511;SDS011;70777;52.034;4.644;2023-08-01T09:48:00;6.53;;;1.77;;
69511;SDS011;70777;52.034;4.644;2023-08-01T09:50:26;5.28;;;1.60;;
69511;SDS011;70777;52.034;4.644;2023-08-01T09:52:51;6.07;;;1.53;;
69511;SDS011;70777;52.034;4.644;2023-08-01T09:58:13;9.52;;;2.22;;
69511;SDS011;70777;52.034;4.644;2023-08-01T10:00:39;5.05;;;1.40;;
69511;SDS011;70777;52.034;4.644;2023-08-01T10:03:06;6.63;;;1.40;;
69511;SDS011;70777;52.034;4.644;2023-08-01T10:05:32;7.75;;;1.65;;
69511;SDS011;70777;52.034;4.644;2023-08-01T10:07:59;6.45;;;1.70;;
69511;SDS011;70777;52.034;4.644;2023-08-01T10:10:26;6.15;;;2.08;;
69511;SDS011;70777;52.034;4.644;2023-08-01T10:12:53;6.75;;;2.35;;
69511;SDS011;70777;52.034;4.644;2023-08-01T10:15:20;6.55;;;1.50;;
69511;SDS011;70777;52.034;4.644;2023-08-01T10:17:45;6.13;;;1.90;;
69511;SDS011;70777;52.034;4.644;2023-08-01T10:20:11;6.10;;;1.93;;
69511;SDS011;70777;52.034;4.644;2023-08-01T10:22:38;5.28;;;1.88;;
69511;SDS011;70777;52.034;4.644;2023-08-01T10:25:05;6.35;;;1.88;;
69511;SDS011;70777;52.034;4.644;2023-08-01T10:27:31;6.07;;;2.00;;
69511;SDS011;70777;52.034;4.644;2023-08-01T10:29:56;4.07;;;1.70;;
69511;SDS011;70777;52.034;4.644;2023-08-01T10:32:33;5.00;;;1.77;;
69511;SDS011;70777;52.034;4.644;2023-08-01T10:35:06;6.18;;;1.65;;
69511;SDS011;70777;52.034;4.644;2023-08-01T10:38:06;4.67;;;1.73;;
69511;SDS011;70777;52.034;4.644;2023-08-01T10:40:34;8.30;;;1.90;;
69511;SDS011;70777;52.034;4.644;2023-08-01T10:43:04;7.00;;;1.70;;
69511;SDS011;70777;52.034;4.644;2023-08-01T10:45:30;10.50;;;2.53;;
69511;SDS011;70777;52.034;4.644;2023-08-01T10:48:11;10.47;;;2.50;;
69511;SDS011;70777;52.034;4.644;2023-08-01T10:50:37;11.10;;;2.67;;
69511;SDS011;70777;52.034;4.644;2023-08-01T10:53:06;7.60;;;1.90;;
69511;SDS011;70777;52.034;4.644;2023-08-01T10:55:43;9.10;;;2.03;;
69511;SDS011;70777;52.034;4.644;2023-08-01T10:58:13;6.30;;;1.67;;
69511;SDS011;70777;52.034;4.644;2023-08-01T11:00:40;4.72;;;1.27;;
69511;SDS011;70777;52.034;4.644;2023-08-01T11:03:09;5.85;;;1.73;;
69511;SDS011;70777;52.034;4.644;2023-08-01T11:05:34;5.17;;;1.70;;
69511;SDS011;70777;52.034;4.644;2023-08-01T11:08:01;9.17;;;1.80;;
69511;SDS011;70777;52.034;4.644;2023-08-01T11:10:28;9.10;;;1.67;;
69511;SDS011;70777;52.034;4.644;2023-08-01T11:12:55;6.90;;;1.77;;
69511;SDS011;70777;52.034;4.644;2023-08-01T11:15:21;8.60;;;2.45;;
69511;SDS011;70777;52.034;4.644;2023-08-01T11:17:47;8.97;;;2.27;;
69511;SDS011;70777;52.034;4.644;2023-08-01T11:20:19;7.72;;;2.05;;
69511;SDS011;70777;52.034;4.644;2023-08-01T11:22:59;6.20;;;1.83;;
69511;SDS011;70777;52.034;4.644;2023-08-01T11:25:41;6.43;;;2.45;;
69511;SDS011;70777;52.034;4.644;2023-08-01T11:28:15;7.35;;;1.67;;
69511;SDS011;70777;52.034;4.644;2023-08-01T11:30:42;4.85;;;2.00;;
69511;SDS011;70777;52.034;4.644;2023-08-01T11:33:21;8.98;;;2.10;;
69511;SDS011;70777;52.034;4.644;2023-08-01T11:35:51;5.72;;;1.65;;
69511;SDS011;70777;52.034;4.644;2023-08-01T11:38:28;6.53;;;1.85;;
69511;SDS011;70777;52.034;4.644;2023-08-01T11:40:56;4.65;;;1.38;;
69511;SDS011;70777;52.034;4.644;2023-08-01T11:43:22;5.55;;;1.40;;
69511;SDS011;70777;52.034;4.644;2023-08-01T11:45:56;7.60;;;2.07;;
69511;SDS011;70777;52.034;4.644;2023-08-01T11:48:24;8.80;;;2.05;;
69511;SDS011;70777;52.034;4.644;2023-08-01T11:51:00;13.03;;;2.27;;
69511;SDS011;70777;52.034;4.644;2023-08-01T11:53:26;7.20;;;1.92;;
69511;SDS011;70777;52.034;4.644;2023-08-01T11:55:53;4.90;;;1.40;;
69511;SDS011;70777;52.034;4.644;2023-08-01T11:58:27;5.80;;;1.38;;
69511;SDS011;70777;52.034;4.644;2023-08-01T12:01:01;8.98;;;2.22;;
69511;SDS011;70777;52.034;4.644;2023-08-01T12:03:30;7.18;;;2.00;;
69511;SDS011;70777;52.034;4.644;2023-08-01T12:06:03;6.07;;;1.63;;
69511;SDS011;70777;52.034;4.644;2023-08-01T12:08:31;7.57;;;1.83;;
69511;SDS011;70777;52.034;4.644;2023-08-01T12:10:59;7.45;;;1.75;;
69511;SDS011;70777;52.034;4.644;2023-08-01T12:13:25;4.40;;;1.30;;
69511;SDS011;70777;52.034;4.644;2023-08-01T12:15:52;7.85;;;2.03;;
69511;SDS011;70777;52.034;4.644;2023-08-01T12:18:22;4.68;;;1.30;;
69511;SDS011;70777;52.034;4.644;2023-08-01T12:20:53;6.43;;;1.83;;
69511;SDS011;70777;52.034;4.644;2023-08-01T12:23:19;6.85;;;2.08;;
69511;SDS011;70777;52.034;4.644;2023-08-01T12:25:45;5.07;;;1.30;;
69511;SDS011;70777;52.034;4.644;2023-08-01T12:33:10;5.57;;;1.40;;
69511;SDS011;70777;52.034;4.644;2023-08-01T12:35:39;6.85;;;1.80;;
69511;SDS011;70777;52.034;4.644;2023-08-01T12:38:05;5.88;;;1.50;;
69511;SDS011;70777;52.034;4.644;2023-08-01T12:40:30;7.40;;;1.77;;
69511;SDS011;70777;52.034;4.644;2023-08-01T12:42:55;10.97;;;1.90;;
69511;SDS011;70777;52.034;4.644;2023-08-01T12:45:21;5.83;;;1.33;;
69511;SDS011;70777;52.034;4.644;2023-08-01T12:47:46;7.40;;;2.10;;
69511;SDS011;70777;52.034;4.644;2023-08-01T12:50:13;7.40;;;1.60;;
69511;SDS011;70777;52.034;4.644;2023-08-01T12:52:38;9.07;;;2.10;;
69511;SDS011;70777;52.034;4.644;2023-08-01T12:55:04;4.93;;;1.60;;
69511;SDS011;70777;52.034;4.644;2023-08-01T12:57:29;7.97;;;1.70;;
69511;SDS011;70777;52.034;4.644;2023-08-01T12:59:55;4.37;;;1.20;;
69511;SDS011;70777;52.034;4.644;2023-08-01T13:02:20;6.90;;;2.17;;
69511;SDS011;70777;52.034;4.644;2023-08-01T13:04:46;5.90;;;1.83;;
69511;SDS011;70777;52.034;4.644;2023-08-01T13:07:11;5.07;;;1.87;;
69511;SDS011;70777;52.034;4.644;2023-08-01T13:09:37;9.07;;;2.37;;
69511;SDS011;70777;52.034;4.644;2023-08-01T13:12:02;6.87;;;2.30;;
69511;SDS011;70777;52.034;4.644;2023-08-01T13:14:29;6.87;;;1.53;;
69511;SDS011;70777;52.034;4.644;2023-08-01T13:16:56;6.20;;;1.70;;
69511;SDS011;70777;52.034;4.644;2023-08-01T13:19:21;6.60;;;1.37;;
69511;SDS011;70777;52.034;4.644;2023-08-01T13:21:47;8.70;;;1.90;;
69511;SDS011;70777;52.034;4.644;2023-08-01T13:24:12;7.27;;;1.73;;
69511;SDS011;70777;52.034;4.644;2023-08-01T13:26:37;13.00;;;2.03;;
69511;SDS011;70777;52.034;4.644;2023-08-01T13:29:03;4.65;;;1.20;;
69511;SDS011;70777;52.034;4.644;2023-08-01T13:31:28;6.43;;;2.05;;
69511;SDS011;70777;52.034;4.644;2023-08-01T13:33:54;5.70;;;1.70;;
69511;SDS011;70777;52.034;4.644;2023-08-01T13:36:20;11.20;;;1.90;;
69511;SDS011;70777;52.034;4.644;2023-08-01T13:38:46;6.47;;;1.50;;
69511;SDS011;70777;52.034;4.644;2023-08-01T13:41:11;6.47;;;2.00;;
69511;SDS011;70777;52.034;4.644;2023-08-01T13:43:36;8.47;;;1.93;;
69511;SDS011;70777;52.034;4.644;2023-08-01T13:46:18;8.20;;;1.50;;
69511;SDS011;70777;52.034;4.644;2023-08-01T13:48:46;8.00;;;1.40;;
69511;SDS011;70777;52.034;4.644;2023-08-01T13:51:12;2.50;;;1.13;;
69511;SDS011;70777;52.034;4.644;2023-08-01T13:53:59;7.72;;;1.85;;
69511;SDS011;70777;52.034;4.644;2023-08-01T13:56:25;6.75;;;1.90;;
69511;SDS011;70777;52.034;4.644;2023-08-01T13:58:51;8.70;;;2.27;;
69511;SDS011;70777;52.034;4.644;2023-08-01T14:01:16;5.20;;;1.80;;
69511;SDS011;70777;52.034;4.644;2023-08-01T14:03:43;7.07;;;1.80;;
69511;SDS011;70777;52.034;4.644;2023-08-01T14:06:09;7.40;;;2.10;;
69511;SDS011;70777;52.034;4.644;2023-08-01T14:08:39;8.23;;;2.00;;
69511;SDS011;70777;52.034;4.644;2023-08-01T14:11:07;5.15;;;1.75;;
69511;SDS011;70777;52.034;4.644;2023-08-01T14:13:35;8.38;;;1.70;;
69511;SDS011;70777;52.034;4.644;2023-08-01T14:16:01;4.53;;;1.70;;
69511;SDS011;70777;52.034;4.644;2023-08-01T14:18:28;5.75;;;1.52;;
69511;SDS011;70777;52.034;4.644;2023-08-01T14:20:53;3.67;;;1.30;;
69511;SDS011;70777;52.034;4.644;2023-08-01T14:23:19;7.40;;;1.70;;
69511;SDS011;70777;52.034;4.644;2023-08-01T14:25:45;6.10;;;1.77;;
69511;SDS011;70777;52.034;4.644;2023-08-01T14:28:11;10.80;;;2.53;;
69511;SDS011;70777;52.034;4.644;2023-08-01T14:30:38;7.97;;;1.83;;
69511;SDS011;70777;52.034;4.644;2023-08-01T14:33:04;10.48;;;2.03;;
69511;SDS011;70777;52.034;4.644;2023-08-01T14:35:33;6.97;;;2.10;;
69511;SDS011;70777;52.034;4.644;2023-08-01T14:38:18;7.80;;;1.33;;
69511;SDS011;70777;52.034;4.644;2023-08-01T14:40:44;7.22;;;1.60;;
69511;SDS011;70777;52.034;4.644;2023-08-01T14:43:09;8.35;;;1.85;;
69511;SDS011;70777;52.034;4.644;2023-08-01T14:45:36;5.95;;;1.20;;
69511;SDS011;70777;52.034;4.644;2023-08-01T14:48:04;5.00;;;1.10;;
69511;SDS011;70777;52.034;4.644;2023-08-01T14:50:30;2.70;;;1.17;;
69511;SDS011;70777;52.034;4.644;2023-08-01T14:52:56;2.92;;;1.10;;
69511;SDS011;70777;52.034;4.644;2023-08-01T14:55:21;5.07;;;1.48;;
69511;SDS011;70777;52.034;4.644;2023-08-01T14:57:46;8.23;;;1.48;;
69511;SDS011;70777;52.034;4.644;2023-08-01T15:00:12;4.00;;;1.52;;